Time;durP1;ratioP1;P1;durP2;ratioP2;P2;SDS_P1;SDS_P2;PMS_P1;PMS_P2;Temp;Humidity;BMP_temperature;BMP_pressure;BME280_temperature;BME280_humidity;BME280_pressure;Samples;Min_cycle;Max_cycle;Signal;HPM_P1;HPM_P2
2023/07/07 00:01:07;;;;;;;1.90;1.50;;;21.40;57.50;;;;;;5002693;28;20484;-66
2023/07/07 00:03:34;;;;;;;2.58;1.77;;;21.40;58.20;;;;;;5002355;28;20062;-66
2023/07/07 00:06:00;;;;;;;2.50;1.65;;;21.50;57.60;;;;;;5004461;28;20161;-66
2023/07/07 00:08:26;;;;;;;1.50;1.23;;;21.40;57.50;;;;;;5002715;28;20026;-60
2023/07/07 00:10:52;;;;;;;4.60;1.75;;;21.50;57.60;;;;;;5001357;28;20052;-64
2023/07/07 00:13:17;;;;;;;2.85;1.45;;;21.40;57.40;;;;;;5001236;28;20030;-64
2023/07/07 00:15:44;;;;;;;2.88;1.60;;;21.40;57.50;;;;;;5001412;28;20027;-66
2023/07/07 00:18:15;;;;;;;1.75;1.65;;;21.50;57.50;;;;;;5002957;28;20108;-66
2023/07/07 00:20:41;;;;;;;2.10;1.63;;;21.50;57.50;;;;;;4998296;28;20033;-63
2023/07/07 00:23:07;;;;;;;3.78;2.47;;;21.40;57.50;;;;;;4997362;28;20030;-66
2023/07/07 00:25:32;;;;;;;2.22;1.63;;;21.50;57.50;;;;;;5003973;28;20121;-60
2023/07/07 00:27:58;;;;;;;2.95;1.60;;;21.50;57.60;;;;;;5004995;28;20026;-65
2023/07/07 00:30:23;;;;;;;1.60;1.50;;;21.50;57.50;;;;;;5003991;28;20022;-65
2023/07/07 00:32:49;;;;;;;1.52;1.40;;;21.40;57.50;;;;;;5001260;28;20030;-65
2023/07/07 00:35:14;;;;;;;2.38;1.83;;;21.40;57.40;;;;;;5005502;28;20037;-62
2023/07/07 00:37:43;;;;;;;2.35;1.45;;;21.40;57.50;;;;;;5001025;28;20027;-65
2023/07/07 00:40:09;;;;;;;2.03;1.40;;;21.50;57.60;;;;;;5004269;28;20886;-62
2023/07/07 00:42:35;;;;;;;2.63;1.90;;;21.50;57.60;;;;;;5013215;28;20034;-65
2023/07/07 00:45:12;;;;;;;1.65;1.55;;;21.50;57.60;;;;;;5005309;28;20139;-67
2023/07/07 00:47:43;;;;;;;3.67;1.65;;;21.50;57.60;;;;;;5003093;28;20041;-66
2023/07/07 00:50:10;;;;;;;2.28;1.50;;;21.50;57.50;;;;;;5008531;28;20040;-66
2023/07/07 00:52:38;;;;;;;1.60;1.42;;;21.40;57.50;;;;;;5006800;28;20334;-66
2023/07/07 00:55:04;;;;;;;3.17;1.65;;;21.50;57.50;;;;;;5004821;28;20500;-66
2023/07/07 00:57:30;;;;;;;2.97;1.48;;;21.50;57.60;;;;;;5006764;28;20048;-66
2023/07/07 00:59:56;;;;;;;1.77;1.48;;;21.40;57.50;;;;;;5006481;28;20391;-66
2023/07/07 01:02:25;;;;;;;1.67;1.50;;;21.40;57.40;;;;;;5007139;28;20034;-67
2023/07/07 01:05:00;;;;;;;1.70;1.60;;;21.40;57.50;;;;;;5007566;28;20124;-66
2023/07/07 01:07:31;;;;;;;2.05;1.70;;;21.40;57.50;;;;;;5006417;28;20034;-65
2023/07/07 01:09:57;;;;;;;3.22;1.77;;;21.40;57.50;;;;;;4998346;28;20097;-66
2023/07/07 01:12:22;;;;;;;2.92;2.20;;;21.50;57.60;;;;;;5005530;28;20181;-66
2023/07/07 01:14:51;;;;;;;3.00;1.90;;;21.50;57.60;;;;;;5004600;28;20037;-66
2023/07/07 01:17:28;;;;;;;2.28;1.27;;;21.40;57.60;;;;;;5006616;28;20108;-66
2023/07/07 01:20:15;;;;;;;2.35;1.92;;;21.40;57.60;;;;;;5007895;28;20404;-64
2023/07/07 01:23:11;;;;;;;3.63;1.60;;;21.40;57.50;;;;;;5007103;28;20050;-64
2023/07/07 01:26:28;;;;;;;2.00;1.58;;;21.40;57.60;;;;;;5008602;28;20080;-66
2023/07/07 01:29:14;;;;;;;2.05;1.40;;;21.40;57.60;;;;;;5001283;28;20026;-65
2023/07/07 01:31:46;;;;;;;1.85;1.65;;;21.40;57.60;;;;;;5006436;28;20541;-66
2023/07/07 01:34:15;;;;;;;1.88;1.63;;;21.40;57.60;;;;;;5005284;28;20619;-66
2023/07/07 01:36:41;;;;;;;1.90;1.30;;;21.40;57.50;;;;;;5022465;28;20092;-66
2023/07/07 01:39:07;;;;;;;2.75;1.83;;;21.40;57.60;;;;;;5001121;28;20046;-66
2023/07/07 01:41:55;;;;;;;1.60;1.50;;;21.40;57.60;;;;;;5005386;28;20156;-65
2023/07/07 01:44:47;;;;;;;3.15;1.63;;;21.40;57.50;;;;;;5005423;28;20464;-66
2023/07/07 01:47:25;;;;;;;2.28;1.63;;;21.40;57.50;;;;;;5000655;28;20022;-66
2023/07/07 01:50:05;;;;;;;3.35;1.73;;;21.40;57.50;;;;;;5005035;28;20034;-65
2023/07/07 01:52:44;;;;;;;2.67;1.60;;;21.40;57.60;;;;;;5004891;28;20030;-65
2023/07/07 01:55:24;;;;;;;3.28;1.77;;;21.40;57.50;;;;;;5005795;28;20061;-66
2023/07/07 01:57:54;;;;;;;2.33;1.77;;;21.40;57.60;;;;;;5005857;28;20434;-64
2023/07/07 02:00:21;;;;;;;3.22;1.77;;;21.40;57.60;;;;;;5003853;28;20030;-66
2023/07/07 02:02:46;;;;;;;1.52;1.42;;;21.40;57.60;;;;;;5006329;28;20038;-62
2023/07/07 02:05:13;;;;;;;2.25;2.05;;;21.40;57.60;;;;;;5006622;28;20048;-66
2023/07/07 02:07:39;;;;;;;2.67;1.60;;;21.40;57.60;;;;;;5006659;28;20066;-66
2023/07/07 02:10:05;;;;;;;2.10;1.80;;;21.40;57.60;;;;;;5003775;28;20445;-64
2023/07/07 02:12:30;;;;;;;1.42;1.33;;;21.40;57.60;;;;;;5007644;28;20038;-64
2023/07/07 02:14:56;;;;;;;4.88;1.77;;;21.40;57.60;;;;;;5005773;28;20125;-64
2023/07/07 02:17:21;;;;;;;1.88;1.50;;;21.40;57.60;;;;;;5004004;28;20084;-64
2023/07/07 02:19:47;;;;;;;2.50;1.73;;;21.40;57.60;;;;;;5005397;28;20048;-64
2023/07/07 02:22:13;;;;;;;2.17;1.60;;;21.40;57.60;;;;;;5006212;28;20092;-66
2023/07/07 02:24:38;;;;;;;2.65;1.35;;;21.40;57.50;;;;;;5004738;28;20423;-64
2023/07/07 02:27:04;;;;;;;2.28;1.42;;;21.40;57.50;;;;;;5005306;28;20069;-65
2023/07/07 02:29:30;;;;;;;2.75;1.80;;;21.40;57.60;;;;;;5002045;28;20042;-65
2023/07/07 02:31:55;;;;;;;2.30;2.10;;;21.30;57.50;;;;;;5005473;28;20288;-66
2023/07/07 02:34:20;;;;;;;2.15;1.70;;;21.40;57.60;;;;;;5004733;28;20033;-65
2023/07/07 02:36:46;;;;;;;1.80;1.50;;;21.40;57.60;;;;;;5006446;28;20037;-66
2023/07/07 02:39:11;;;;;;;2.15;1.58;;;21.40;57.50;;;;;;5003739;28;20128;-65
2023/07/07 02:41:37;;;;;;;2.03;1.60;;;21.30;57.40;;;;;;5003369;28;20065;-65
2023/07/07 02:44:03;;;;;;;3.05;1.88;;;21.30;57.50;;;;;;5004701;28;20030;-65
2023/07/07 02:46:28;;;;;;;3.10;2.00;;;21.40;57.50;;;;;;5005850;28;20116;-65
2023/07/07 02:48:54;;;;;;;2.20;1.50;;;21.40;57.50;;;;;;5004600;28;20038;-66
2023/07/07 02:51:19;;;;;;;2.17;1.58;;;21.40;57.50;;;;;;5005215;28;20037;-62
2023/07/07 02:53:45;;;;;;;1.40;1.30;;;21.30;57.40;;;;;;5006657;28;20599;-65
2023/07/07 02:56:10;;;;;;;1.90;1.70;;;21.30;57.50;;;;;;5006151;28;20034;-65
2023/07/07 02:58:35;;;;;;;2.40;1.70;;;21.40;57.50;;;;;;5003881;28;20402;-65
2023/07/07 03:01:10;;;;;;;2.17;1.75;;;21.30;57.50;;;;;;5004926;28;20337;-63
2023/07/07 03:03:38;;;;;;;2.50;1.80;;;21.30;57.40;;;;;;5002141;28;20030;-65
2023/07/07 03:06:06;;;;;;;3.70;1.80;;;21.30;57.50;;;;;;5005496;28;20053;-65
2023/07/07 03:08:31;;;;;;;2.95;2.00;;;21.30;57.40;;;;;;5002386;28;20400;-65
2023/07/07 03:10:57;;;;;;;4.53;1.88;;;21.30;57.40;;;;;;5001546;28;20045;-66
2023/07/07 03:13:22;;;;;;;1.48;1.38;;;21.30;57.40;;;;;;5003756;28;20034;-65
2023/07/07 03:15:47;;;;;;;2.45;1.90;;;21.30;57.50;;;;;;5006450;28;20099;-65
2023/07/07 03:18:14;;;;;;;3.08;1.55;;;21.30;57.50;;;;;;5010629;28;20032;-66
2023/07/07 03:20:47;;;;;;;3.50;1.63;;;21.30;57.50;;;;;;5005252;28;20036;-65
2023/07/07 03:23:13;;;;;;;2.67;1.48;;;21.30;57.50;;;;;;5006197;28;20496;-66
2023/07/07 03:25:38;;;;;;;2.08;1.70;;;21.30;57.50;;;;;;5004686;28;20520;-65
2023/07/07 03:28:04;;;;;;;2.13;1.92;;;21.30;57.50;;;;;;5004246;28;20026;-66
2023/07/07 03:30:29;;;;;;;1.92;1.40;;;21.30;57.50;;;;;;5003913;28;20038;-66
2023/07/07 03:32:55;;;;;;;2.00;1.55;;;21.30;57.50;;;;;;5004040;28;20091;-66
2023/07/07 03:35:21;;;;;;;1.50;1.40;;;21.30;57.50;;;;;;5003354;28;20092;-63
2023/07/07 03:37:46;;;;;;;2.42;2.08;;;21.30;57.50;;;;;;4997800;28;20073;-64
2023/07/07 03:40:12;;;;;;;2.92;1.90;;;21.30;57.50;;;;;;5004169;28;20104;-66
2023/07/07 03:42:37;;;;;;;1.77;1.58;;;21.30;57.40;;;;;;5001823;28;20274;-65
2023/07/07 03:45:03;;;;;;;2.67;2.10;;;21.30;57.30;;;;;;5003032;28;20059;-65
2023/07/07 03:47:29;;;;;;;4.03;1.88;;;21.30;57.30;;;;;;5003437;28;20353;-64
2023/07/07 03:49:54;;;;;;;3.75;2.10;;;21.30;57.40;;;;;;5004351;28;20022;-65
2023/07/07 03:52:19;;;;;;;2.10;1.80;;;21.40;57.30;;;;;;5004455;28;20030;-62
2023/07/07 03:54:46;;;;;;;1.85;1.52;;;21.40;57.40;;;;;;4993726;28;20105;-66
2023/07/07 03:57:11;;;;;;;2.97;1.67;;;21.40;57.30;;;;;;5003342;28;20129;-62
2023/07/07 03:59:37;;;;;;;3.65;1.73;;;21.40;57.40;;;;;;5002608;28;20076;-65
2023/07/07 04:02:03;;;;;;;2.85;1.80;;;21.40;57.40;;;;;;5003609;28;20053;-65
2023/07/07 04:04:28;;;;;;;2.45;1.60;;;21.30;57.30;;;;;;5002446;28;20037;-65
2023/07/07 04:06:58;;;;;;;2.20;1.50;;;21.30;57.30;;;;;;5001014;28;20034;-65
2023/07/07 04:09:24;;;;;;;3.40;1.80;;;21.30;57.40;;;;;;5002106;28;20109;-66
2023/07/07 04:11:49;;;;;;;2.40;1.75;;;21.30;57.40;;;;;;5002568;28;20133;-60
2023/07/07 04:14:15;;;;;;;2.47;2.00;;;21.30;57.40;;;;;;5003509;28;20519;-65
2023/07/07 04:16:41;;;;;;;3.08;1.70;;;21.40;57.40;;;;;;5002361;28;20037;-65
2023/07/07 04:19:07;;;;;;;2.88;2.05;;;21.30;57.30;;;;;;5003604;28;20033;-65
2023/07/07 04:21:34;;;;;;;2.00;1.75;;;21.40;57.30;;;;;;5003088;28;20532;-65
2023/07/07 04:24:00;;;;;;;2.92;1.60;;;21.30;57.30;;;;;;5000500;28;20040;-65
2023/07/07 04:26:28;;;;;;;2.28;1.80;;;21.30;57.30;;;;;;5003110;28;20034;-64
2023/07/07 04:28:57;;;;;;;2.85;1.88;;;21.30;57.40;;;;;;5002545;28;20457;-66
2023/07/07 04:31:25;;;;;;;1.88;1.60;;;21.30;57.40;;;;;;5002876;28;20084;-63
2023/07/07 04:33:52;;;;;;;3.58;2.17;;;21.30;57.40;;;;;;5003150;28;20401;-65
2023/07/07 04:36:18;;;;;;;1.73;1.45;;;21.30;57.40;;;;;;5003455;28;20034;-65
2023/07/07 04:38:44;;;;;;;2.58;2.08;;;21.40;57.50;;;;;;5000096;28;20099;-65
2023/07/07 04:41:13;;;;;;;2.13;1.80;;;21.30;57.40;;;;;;5001515;28;20026;-61
2023/07/07 04:43:44;;;;;;;2.50;1.92;;;21.30;57.30;;;;;;5000765;28;20044;-65
2023/07/07 04:46:12;;;;;;;2.35;2.10;;;21.40;57.90;;;;;;5002559;28;20049;-65
2023/07/07 04:48:38;;;;;;;2.08;1.88;;;21.40;57.20;;;;;;5003066;28;20072;-65
2023/07/07 04:51:06;;;;;;;2.75;2.08;;;21.40;57.20;;;;;;5001647;28;20085;-65
2023/07/07 04:53:32;;;;;;;2.50;1.77;;;21.40;57.20;;;;;;5002268;28;20120;-64
2023/07/07 04:55:58;;;;;;;2.67;2.00;;;21.40;57.20;;;;;;5002548;28;20038;-65
2023/07/07 04:58:28;;;;;;;2.72;2.15;;;21.50;57.20;;;;;;5003498;28;20064;-65
2023/07/07 05:01:05;;;;;;;2.47;1.58;;;21.50;57.20;;;;;;5008891;28;20369;-61
2023/07/07 05:03:31;;;;;;;2.45;2.25;;;21.50;57.10;;;;;;5016509;28;20046;-63
2023/07/07 05:05:57;;;;;;;2.38;1.60;;;21.50;57.20;;;;;;5005499;28;20030;-62
2023/07/07 05:08:22;;;;;;;2.88;1.90;;;21.50;57.90;;;;;;5002317;28;20037;-65
2023/07/07 05:10:48;;;;;;;2.22;2.03;;;21.50;57.80;;;;;;5005452;28;20037;-66
2023/07/07 05:13:14;;;;;;;3.97;2.20;;;21.50;57.80;;;;;;5005337;28;20061;-65
2023/07/07 05:15:39;;;;;;;5.07;2.13;;;21.40;57.70;;;;;;5005232;28;20089;-63
2023/07/07 05:18:05;;;;;;;5.60;2.33;;;21.50;57.60;;;;;;5004252;28;20030;-64
2023/07/07 05:20:30;;;;;;;5.82;2.03;;;21.50;57.60;;;;;;5003782;28;20328;-67
2023/07/07 05:22:56;;;;;;;4.22;2.08;;;21.40;57.60;;;;;;5002997;28;20040;-66
2023/07/07 05:25:21;;;;;;;8.77;2.40;;;21.40;57.20;;;;;;5003365;28;20493;-66
2023/07/07 05:27:46;;;;;;;5.97;2.33;;;21.40;57.20;;;;;;5006312;28;20049;-61
2023/07/07 05:30:12;;;;;;;4.78;2.05;;;21.40;57.00;;;;;;5006789;28;20022;-65
2023/07/07 05:32:38;;;;;;;5.82;2.08;;;21.40;58.40;;;;;;5004940;28;20038;-65
2023/07/07 05:35:03;;;;;;;3.25;1.85;;;21.40;58.70;;;;;;5002123;28;20061;-65
2023/07/07 05:37:29;;;;;;;2.55;2.00;;;21.40;58.70;;;;;;4999332;28;20041;-65
2023/07/07 05:39:54;;;;;;;4.25;2.40;;;21.30;58.10;;;;;;5007087;28;20452;-66
2023/07/07 05:42:20;;;;;;;4.32;1.92;;;21.30;57.70;;;;;;5006928;28;20034;-66
2023/07/07 05:44:45;;;;;;;3.28;2.25;;;21.30;57.60;;;;;;5006486;28;20034;-66
2023/07/07 05:47:11;;;;;;;5.63;2.20;;;21.40;57.60;;;;;;5004555;28;20188;-65
2023/07/07 05:49:36;;;;;;;4.03;2.03;;;21.40;57.60;;;;;;5031612;28;20112;-66
2023/07/07 05:52:01;;;;;;;3.28;2.22;;;21.30;57.50;;;;;;5007928;28;20532;-63
2023/07/07 05:54:27;;;;;;;3.42;2.28;;;21.30;57.40;;;;;;5005934;28;20030;-62
2023/07/07 05:56:54;;;;;;;3.85;2.40;;;21.40;57.40;;;;;;5004267;28;20038;-65
2023/07/07 05:59:19;;;;;;;4.00;2.15;;;21.30;57.20;;;;;;5006056;28;20045;-65
2023/07/07 06:01:45;;;;;;;2.95;2.33;;;21.30;57.20;;;;;;5006136;28;20552;-65
2023/07/07 06:04:10;;;;;;;2.60;2.17;;;21.30;56.50;;;;;;5001575;28;20022;-65
2023/07/07 06:06:36;;;;;;;3.95;1.75;;;21.30;56.10;;;;;;4999450;28;20061;-65
2023/07/07 06:09:02;;;;;;;4.82;2.60;;;21.30;56.20;;;;;;5001724;28;20040;-65
2023/07/07 06:11:27;;;;;;;2.63;2.20;;;21.30;56.00;;;;;;5006173;28;20763;-61
2023/07/07 06:13:52;;;;;;;3.10;2.13;;;21.30;56.00;;;;;;5005723;28;20061;-63
2023/07/07 06:16:18;;;;;;;3.90;2.28;;;21.30;56.00;;;;;;5006494;28;20033;-65
2023/07/07 06:18:44;;;;;;;5.18;2.30;;;21.30;56.10;;;;;;5004060;28;20675;-65
2023/07/07 06:21:09;;;;;;;3.80;2.40;;;21.30;56.10;;;;;;5006274;28;20053;-65
2023/07/07 06:23:35;;;;;;;4.57;1.90;;;21.30;56.10;;;;;;5003255;28;20105;-65
2023/07/07 06:26:01;;;;;;;2.90;1.95;;;21.30;56.10;;;;;;5005048;28;20091;-65
2023/07/07 06:28:26;;;;;;;4.25;2.55;;;21.40;55.90;;;;;;5004362;28;20041;-64
2023/07/07 06:30:52;;;;;;;4.05;2.38;;;21.40;55.70;;;;;;5005425;28;20646;-65
2023/07/07 06:33:19;;;;;;;3.78;2.40;;;21.40;55.10;;;;;;5000950;28;20380;-65
2023/07/07 06:35:45;;;;;;;3.72;2.50;;;21.40;54.90;;;;;;4999223;28;20042;-63
2023/07/07 06:38:11;;;;;;;4.20;2.10;;;21.40;55.50;;;;;;5004267;28;20026;-64
2023/07/07 06:40:36;;;;;;;3.17;1.75;;;21.40;55.30;;;;;;4995322;28;20048;-65
2023/07/07 06:43:02;;;;;;;3.95;2.30;;;21.40;55.60;;;;;;5005375;28;20133;-62
2023/07/07 06:45:28;;;;;;;3.80;2.40;;;21.30;55.80;;;;;;5003753;28;20026;-63
2023/07/07 06:47:54;;;;;;;4.85;2.40;;;21.30;55.70;;;;;;5002031;28;20401;-64
2023/07/07 06:50:32;;;;;;;3.03;2.30;;;21.40;55.70;;;;;;5005205;28;20038;-64
2023/07/07 06:52:57;;;;;;;4.25;3.05;;;21.40;55.20;;;;;;5000095;28;20085;-64
2023/07/07 06:55:23;;;;;;;3.10;2.30;;;21.40;55.80;;;;;;5003043;28;20033;-63
2023/07/07 06:57:49;;;;;;;4.28;2.55;;;21.40;55.70;;;;;;5004013;28;20030;-64
2023/07/07 07:00:15;;;;;;;3.45;2.28;;;21.40;55.80;;;;;;5003918;28;20041;-65
2023/07/07 07:02:41;;;;;;;3.03;2.40;;;21.40;55.70;;;;;;4996807;28;20112;-65
2023/07/07 07:05:07;;;;;;;3.92;2.60;;;21.40;55.60;;;;;;5002031;28;20066;-65
2023/07/07 07:07:33;;;;;;;3.65;2.13;;;21.40;55.10;;;;;;5003426;28;20068;-66
2023/07/07 07:10:00;;;;;;;4.65;2.40;;;21.40;55.40;;;;;;5004401;28;20124;-65
2023/07/07 07:12:25;;;;;;;4.28;2.33;;;21.40;55.30;;;;;;5004956;28;20041;-65
2023/07/07 07:14:52;;;;;;;5.10;3.00;;;21.40;55.30;;;;;;4992833;28;20061;-65
2023/07/07 07:17:18;;;;;;;5.25;2.78;;;21.40;55.50;;;;;;5004728;28;20051;-65
2023/07/07 07:19:43;;;;;;;5.72;2.22;;;21.40;55.10;;;;;;5001642;28;20065;-65
2023/07/07 07:22:09;;;;;;;8.07;2.72;;;21.40;55.30;;;;;;5000781;28;20022;-64
2023/07/07 07:24:34;;;;;;;6.07;2.97;;;21.40;55.10;;;;;;5003012;28;20099;-63
2023/07/07 07:27:00;;;;;;;3.90;2.22;;;21.40;55.30;;;;;;5003788;28;20353;-64
2023/07/07 07:29:25;;;;;;;5.57;2.95;;;21.40;55.40;;;;;;5000176;28;20073;-64
2023/07/07 07:31:50;;;;;;;3.60;2.70;;;21.40;55.70;;;;;;4999624;28;20042;-64
2023/07/07 07:34:34;;;;;;;4.13;2.45;;;21.40;55.50;;;;;;5003992;28;20025;-65
2023/07/07 07:37:01;;;;;;;4.35;2.10;;;21.40;56.20;;;;;;5000530;28;21108;-65
2023/07/07 07:39:27;;;;;;;4.45;2.50;;;21.30;56.70;;;;;;5003169;28;20062;-63
2023/07/07 07:41:55;;;;;;;5.43;2.35;;;21.40;55.70;;;;;;5002797;28;20107;-64
2023/07/07 07:44:22;;;;;;;7.30;2.50;;;21.30;55.80;;;;;;5002828;28;20037;-64
2023/07/07 07:46:50;;;;;;;3.10;2.38;;;21.40;55.50;;;;;;5003019;28;20385;-65
2023/07/07 07:49:17;;;;;;;6.43;2.92;;;21.40;55.60;;;;;;4999460;28;20525;-65
2023/07/07 07:51:43;;;;;;;7.82;3.08;;;21.40;54.70;;;;;;5000670;28;20030;-65
2023/07/07 07:54:11;;;;;;;5.30;2.50;;;21.40;54.80;;;;;;5001631;28;20088;-64
2023/07/07 07:56:37;;;;;;;5.22;3.00;;;21.40;55.30;;;;;;5001065;28;20118;-64
2023/07/07 07:59:04;;;;;;;4.10;2.53;;;21.40;55.70;;;;;;4997240;28;20026;-64
2023/07/07 08:01:30;;;;;;;3.13;2.45;;;21.40;55.90;;;;;;5003001;28;20050;-63
2023/07/07 08:03:55;;;;;;;4.75;2.42;;;21.40;55.40;;;;;;4997208;28;20070;-64
2023/07/07 08:06:21;;;;;;;5.72;2.50;;;21.40;55.30;;;;;;5002214;28;20026;-64
2023/07/07 08:08:47;;;;;;;6.78;2.63;;;21.40;55.30;;;;;;5003878;28;20814;-62
2023/07/07 08:11:19;;;;;;;5.05;2.90;;;21.40;55.30;;;;;;5004591;28;20080;-64
2023/07/07 08:13:45;;;;;;;5.05;2.80;;;21.40;54.80;;;;;;5004830;28;20069;-64
2023/07/07 08:16:12;;;;;;;5.97;2.50;;;21.40;54.90;;;;;;5004176;28;20030;-63
2023/07/07 08:18:38;;;;;;;5.10;2.88;;;21.40;54.40;;;;;;5002742;28;20563;-63
2023/07/07 08:21:04;;;;;;;4.07;2.35;;;21.40;54.20;;;;;;5002218;28;20060;-64
2023/07/07 08:23:30;;;;;;;3.88;3.03;;;21.40;53.90;;;;;;5002015;28;20308;-63
2023/07/07 08:25:55;;;;;;;4.63;2.58;;;21.50;54.20;;;;;;5002049;28;20038;-64
2023/07/07 08:28:21;;;;;;;5.57;2.75;;;21.40;53.80;;;;;;5000310;28;20040;-64
2023/07/07 08:30:47;;;;;;;3.38;2.28;;;21.40;54.10;;;;;;5001371;28;20046;-63
2023/07/07 08:33:12;;;;;;;5.22;2.83;;;21.40;53.80;;;;;;5002432;28;20546;-64
2023/07/07 08:35:38;;;;;;;4.88;3.15;;;21.40;53.90;;;;;;4999545;28;20076;-63
2023/07/07 08:38:04;;;;;;;5.57;2.67;;;21.40;53.80;;;;;;5002195;28;20125;-64
2023/07/07 08:40:44;;;;;;;3.55;2.22;;;21.40;53.20;;;;;;5002544;28;20030;-64
2023/07/07 08:43:11;;;;;;;3.90;2.70;;;21.40;52.20;;;;;;5000177;28;21073;-64
2023/07/07 08:45:40;;;;;;;6.38;2.50;;;21.50;52.50;;;;;;5000557;28;20060;-64
2023/07/07 08:48:20;;;;;;;3.30;3.03;;;21.40;51.70;;;;;;4999713;28;20031;-63
2023/07/07 08:50:53;;;;;;;3.53;2.55;;;21.40;52.40;;;;;;5001157;28;20045;-65
2023/07/07 08:53:38;;;;;;;3.67;2.30;;;21.40;53.00;;;;;;5002274;28;20272;-63
2023/07/07 08:56:22;;;;;;;4.45;2.42;;;21.40;53.20;;;;;;4996106;28;20202;-64
2023/07/07 08:58:59;;;;;;;3.08;2.45;;;21.40;52.20;;;;;;4998256;28;20049;-63
2023/07/07 09:01:35;;;;;;;3.17;2.28;;;21.40;52.50;;;;;;5005306;28;20053;-65
2023/07/07 09:04:28;;;;;;;6.07;2.67;;;21.40;51.60;;;;;;5005230;28;20030;-65
2023/07/07 09:07:12;;;;;;;5.70;3.20;;;21.40;51.40;;;;;;5004309;28;20039;-65
2023/07/07 09:10:08;;;;;;;5.00;2.50;;;21.40;51.90;;;;;;5016767;28;20053;-63
2023/07/07 09:12:58;;;;;;;4.78;3.13;;;21.40;51.40;;;;;;5004534;28;20034;-65
2023/07/07 09:15:29;;;;;;;2.83;2.00;;;21.40;51.60;;;;;;5001776;28;20500;-66
2023/07/07 09:18:02;;;;;;;5.05;2.22;;;21.40;52.30;;;;;;5003927;28;20176;-65
2023/07/07 09:20:30;;;;;;;3.53;2.63;;;21.40;52.60;;;;;;5005786;28;20098;-63
2023/07/07 09:23:17;;;;;;;4.35;2.63;;;21.40;52.80;;;;;;5002093;28;20046;-65
2023/07/07 09:25:48;;;;;;;4.75;2.97;;;21.40;52.70;;;;;;5005677;28;20036;-65
2023/07/07 09:28:15;;;;;;;7.28;2.53;;;21.40;52.60;;;;;;5002379;28;20186;-65
2023/07/07 09:30:52;;;;;;;4.05;2.53;;;21.40;52.00;;;;;;5004918;28;20235;-64
2023/07/07 09:33:20;;;;;;;5.60;2.35;;;21.40;51.60;;;;;;5004558;28;20080;-65
2023/07/07 09:36:08;;;;;;;3.20;2.58;;;21.40;51.30;;;;;;5005041;28;20042;-65
2023/07/07 09:39:12;;;;;;;4.32;2.83;;;21.40;51.70;;;;;;5005136;28;20555;-66
2023/07/07 09:41:47;;;;;;;2.45;2.10;;;21.40;51.20;;;;;;4994057;28;20419;-63
2023/07/07 09:44:38;;;;;;;6.38;3.20;;;21.40;51.60;;;;;;5003124;28;20228;-65
2023/07/07 09:47:29;;;;;;;3.47;2.70;;;21.40;51.70;;;;;;4988245;28;20025;-65
2023/07/07 09:50:05;;;;;;;4.53;2.92;;;21.40;52.20;;;;;;5004000;28;20552;-66
2023/07/07 09:52:45;;;;;;;5.32;2.83;;;21.40;50.60;;;;;;4999480;28;20030;-66
2023/07/07 09:55:15;;;;;;;3.80;2.40;;;21.40;51.40;;;;;;5004036;28;20022;-65
2023/07/07 09:57:58;;;;;;;5.75;2.65;;;21.40;51.30;;;;;;5002112;28;20516;-66
2023/07/07 10:00:26;;;;;;;3.80;2.63;;;21.40;51.10;;;;;;5005021;28;20038;-65
2023/07/07 10:02:52;;;;;;;3.72;2.60;;;21.40;51.70;;;;;;5004956;28;20040;-63
2023/07/07 10:05:23;;;;;;;5.30;2.53;;;21.40;51.40;;;;;;5006709;28;20034;-65
2023/07/07 10:07:49;;;;;;;4.57;2.70;;;21.50;51.40;;;;;;5003699;28;20129;-66
2023/07/07 10:10:15;;;;;;;5.57;2.85;;;21.50;50.50;;;;;;5005575;28;20050;-67
2023/07/07 10:12:41;;;;;;;5.38;2.90;;;21.50;51.10;;;;;;5001391;28;26313;-66
2023/07/07 10:15:50;;;;;;;3.53;2.90;;;21.40;51.00;;;;;;5004678;28;20145;-65
2023/07/07 10:18:24;;;;;;;3.88;2.35;;;21.40;49.80;;;;;;5001052;28;20029;-64
2023/07/07 10:20:51;;;;;;;5.50;3.03;;;21.40;49.70;;;;;;4995030;28;20307;-65
2023/07/07 10:23:17;;;;;;;6.32;2.72;;;21.50;50.20;;;;;;4999510;28;20408;-65
2023/07/07 10:25:44;;;;;;;7.13;2.70;;;21.50;51.80;;;;;;5000464;28;20084;-65
2023/07/07 10:28:13;;;;;;;5.50;2.70;;;21.60;52.20;;;;;;5004085;28;20704;-66
2023/07/07 10:30:40;;;;;;;4.55;3.17;;;21.50;52.10;;;;;;5001396;28;20038;-65
2023/07/07 10:33:10;;;;;;;3.90;2.90;;;21.50;51.00;;;;;;5005249;28;20068;-66
2023/07/07 10:35:36;;;;;;;5.18;2.60;;;21.50;51.00;;;;;;5004449;28;20210;-65
2023/07/07 10:38:05;;;;;;;8.70;2.85;;;21.60;51.40;;;;;;5004245;28;20029;-66
2023/07/07 10:40:32;;;;;;;4.05;2.70;;;21.50;51.60;;;;;;5002124;28;20070;-66
2023/07/07 10:42:58;;;;;;;6.40;2.67;;;21.50;51.80;;;;;;5004992;28;20084;-69
2023/07/07 10:45:24;;;;;;;5.10;2.30;;;21.50;52.40;;;;;;5004141;28;20034;-64
2023/07/07 10:47:50;;;;;;;4.65;2.65;;;21.50;52.30;;;;;;5004457;28;20061;-64
2023/07/07 10:50:20;;;;;;;5.50;2.72;;;21.50;52.30;;;;;;5002999;28;20056;-66
2023/07/07 10:53:07;;;;;;;5.03;3.10;;;21.50;52.30;;;;;;4999290;28;20519;-65
2023/07/07 10:55:48;;;;;;;4.43;2.88;;;21.50;50.70;;;;;;5003439;28;20111;-64
2023/07/07 10:58:35;;;;;;;7.78;3.22;;;21.60;51.00;;;;;;5013046;28;20034;-65
2023/07/07 11:01:19;;;;;;;6.30;3.13;;;21.60;51.30;;;;;;5012139;28;20037;-63
2023/07/07 11:04:03;;;;;;;5.18;3.70;;;21.60;51.40;;;;;;5006118;28;20030;-64
2023/07/07 11:06:59;;;;;;;6.47;3.92;;;21.60;51.30;;;;;;5002414;28;20092;-64
2023/07/07 11:10:07;;;;;;;5.43;3.20;;;21.50;51.70;;;;;;5000735;28;20121;-65
2023/07/07 11:13:09;;;;;;;4.38;3.20;;;21.50;51.20;;;;;;5001137;28;20088;-64
2023/07/07 11:15:41;;;;;;;5.80;4.25;;;21.60;50.50;;;;;;5002363;28;20096;-62
2023/07/07 11:18:26;;;;;;;5.78;4.25;;;21.60;50.50;;;;;;4998625;28;20235;-64
2023/07/07 11:21:17;;;;;;;6.07;4.35;;;21.60;51.10;;;;;;5002046;28;20108;-63
2023/07/07 11:24:09;;;;;;;6.68;5.22;;;21.60;51.50;;;;;;5004079;28;20436;-63
2023/07/07 11:26:54;;;;;;;7.65;5.78;;;21.60;51.80;;;;;;5000233;28;20117;-65
2023/07/07 11:29:22;;;;;;;9.25;5.45;;;21.60;52.10;;;;;;4999114;28;20033;-63
2023/07/07 11:32:10;;;;;;;8.02;5.07;;;21.60;52.10;;;;;;5002844;28;20475;-64
2023/07/07 11:34:36;;;;;;;6.43;4.78;;;21.60;52.40;;;;;;5002334;28;20037;-64
2023/07/07 11:37:19;;;;;;;5.95;4.55;;;21.60;52.40;;;;;;5000641;28;20022;-67
2023/07/07 11:39:51;;;;;;;8.07;6.15;;;21.60;51.90;;;;;;5001266;28;20040;-66
2023/07/07 11:42:50;;;;;;;19.60;14.93;;;21.70;51.60;;;;;;5002584;28;20081;-64
2023/07/07 11:45:33;;;;;;;13.05;10.43;;;21.70;52.40;;;;;;4999884;28;20535;-66
2023/07/07 11:48:29;;;;;;;5.75;4.80;;;21.70;52.10;;;;;;4996927;28;20041;-65
2023/07/07 11:51:03;;;;;;;6.78;4.05;;;21.60;50.80;;;;;;5000880;28;20029;-65
2023/07/07 11:54:06;;;;;;;4.20;3.10;;;21.60;50.30;;;;;;5002723;28;20440;-66
2023/07/07 11:56:53;;;;;;;6.60;3.08;;;21.60;49.70;;;;;;4995697;28;20046;-65
2023/07/07 11:59:26;;;;;;;4.63;2.83;;;21.70;49.60;;;;;;5003749;28;20038;-67
2023/07/07 12:01:55;;;;;;;5.60;4.10;;;21.70;49.10;;;;;;5012225;28;20050;-65
2023/07/07 12:04:30;;;;;;;7.57;4.05;;;21.70;49.80;;;;;;5000492;28;20027;-67
2023/07/07 12:07:03;;;;;;;8.30;4.68;;;21.70;50.20;;;;;;4996801;28;20052;-65
2023/07/07 12:09:48;;;;;;;6.43;3.88;;;21.70;51.00;;;;;;5000124;28;20030;-66
2023/07/07 12:12:36;;;;;;;9.15;3.30;;;21.70;51.40;;;;;;4995655;28;20030;-65
2023/07/07 12:15:07;;;;;;;3.97;3.13;;;21.80;50.80;;;;;;5001325;28;20064;-66
2023/07/07 12:17:39;;;;;;;4.88;3.28;;;21.80;50.60;;;;;;4999478;28;20029;-67
2023/07/07 12:20:21;;;;;;;4.60;3.10;;;21.80;49.90;;;;;;5000763;28;20022;-64
2023/07/07 12:22:47;;;;;;;21.50;4.25;;;21.90;49.70;;;;;;5002780;28;20061;-63
2023/07/07 12:25:25;;;;;;;13.43;3.95;;;21.90;50.20;;;;;;5003067;28;20496;-66
2023/07/07 12:27:51;;;;;;;10.30;3.10;;;21.90;50.60;;;;;;5002758;28;20053;-62
2023/07/07 12:30:29;;;;;;;6.60;3.45;;;21.90;50.90;;;;;;4999311;28;20681;-65
2023/07/07 12:32:55;;;;;;;3.92;2.58;;;21.90;51.30;;;;;;4999791;28;20132;-64
2023/07/07 12:35:42;;;;;;;4.80;3.10;;;21.80;50.60;;;;;;5000752;28;20042;-64
2023/07/07 12:38:30;;;;;;;5.55;3.63;;;21.80;49.50;;;;;;5004870;28;20504;-64
2023/07/07 12:41:00;;;;;;;19.58;5.57;;;21.80;49.90;;;;;;5003955;28;20042;-66
2023/07/07 12:43:38;;;;;;;14.05;4.50;;;21.80;50.50;;;;;;5003274;28;20343;-64
2023/07/07 12:46:06;;;;;;;6.28;3.67;;;21.80;51.00;;;;;;5003068;28;20034;-63
2023/07/07 12:48:32;;;;;;;6.55;3.42;;;21.80;50.60;;;;;;5003110;28;20041;-65
2023/07/07 12:51:01;;;;;;;4.50;3.10;;;21.90;50.20;;;;;;5004209;28;20034;-64
2023/07/07 12:53:31;;;;;;;6.45;2.85;;;21.90;49.60;;;;;;5007220;28;20030;-65
2023/07/07 12:56:28;;;;;;;3.90;2.70;;;21.90;49.70;;;;;;5003545;28;20026;-65
2023/07/07 12:58:58;;;;;;;5.03;3.22;;;21.90;49.50;;;;;;5002191;28;20562;-64
2023/07/07 13:01:38;;;;;;;5.03;3.28;;;21.90;50.40;;;;;;5004748;28;20031;-64
2023/07/07 13:04:07;;;;;;;7.70;3.10;;;21.90;50.20;;;;;;5004648;28;20045;-64